Details From SBSN - SANTAREM
To SBPJ - Tocantins
Flight Number -
Tags generated
Created
Modified
Stats Distance 667 nm / 1,236 km
Max Altitude 35,000 ft / 10,668 m
Waypoints 6
Social Downloads 7
Likes 0
Share VATSIM

Download

Looking for another format? Having issues loading an existing format? Contact us
Advertisement - Login to hide

Notes

Basic altitude profile: - Ascent Rate: 2500ft/min - Ascent Speed: 250kts - Cruise Altitude: 35000ft - Cruise Speed: 420kts - Descent Rate: 1500ft/min - Descent Speed: 250kts Options: - Use NATs: yes - Use PACOTS: yes - Use low airways: yes - Use high airways: yes

Route

SBSN RESIN UZ13 TEREB SBPJ

ID Type Via Altitude Latitude Longitude Leg Dist Tot Dist Heading (true) Name
O SBSN APT - 0 ft / 0 m -2.42243˚ -54.79279˚ - 0 nm - SANTAREM
RESIN FIX - 25,600 ft / 7,803 m -2.22975˚ -53.60925˚ 71 nm 71 nm 81° / 81° -
ANGUK FIX UZ13 (AWY-HI) 35,000 ft / 10,668 m -4.55389˚ -52.37528˚ 157 nm 229 nm 152° / 152° -
UGUTO FIX UZ13 (AWY-HI) 35,000 ft / 10,668 m -8.03633˚ -50.53017˚ 236 nm 466 nm 152° / 152° -
TEREB FIX UZ13 (AWY-HI) 23,500 ft / 7,163 m -9.95050˚ -49.50383˚ 130 nm 596 nm 152° / 152° -
O SBPJ APT - 0 ft / 0 m -10.29152˚ -48.35697˚ 70 nm 667 nm 107° / 107° Tocantins

Altitude Profile

Advertisement - Login to hide

Weather


0- 5 10 15 20 25 30 35+ Temperature / ° C

Clouds and Precipitation
Forecast for 2018-05-25 12:00 UTC. Updated 26 minutes ago

Ground ~20,000 ft ~40,000 ft Winds

SBSN

Details ICAO SBSN (STM)
Name SANTAREM
Region Brazil
Timezone America/Santarem (UTC-3.0)
Stats Elevation 198 ft / 60 m (AMSL)
Location -2.422430° -54.792788°
Runways 1
Magnetic Variation 18.380° W

METAR

SBSN 251100Z 17002KT 9999 SCT010 SCT015 BKN100 24/24 Q1013

Decode

TAF

TAF SBSN 250400Z 2506/2606 18005KT 9999 SCT015 TN24/2507Z TX29/2517Z PROB30 2606/2609 TS SCT015 FEW025CB BECMG 2510/2511 12005KT BECMG 2516/2518 06005KT FEW018 FEW025TCU BECMG 2522/2524 12005KT CAVOK RMK PCW

Decode

Departure Runways

ID Width Length Bearing (true) Bearing (mag) Surface Threshold Offset Overrun Length
10 148 ft / 45 m 7,873 ft / 2,400 m 80.69° 99.07° Asphalt 0 ft / 0 m 245 ft / 75 m
28 148 ft / 45 m 7,873 ft / 2,400 m 260.69° 279.07° Asphalt 0 ft / 0 m 202 ft / 62 m

SBPJ

Details ICAO SBPJ (PMW)
Name Tocantins
Region Brazil
Timezone America/Araguaina (UTC-3.0)
Stats Elevation 774 ft / 236 m (AMSL)
Location -10.291524° -48.356972°
Runways 1
Magnetic Variation 21.285° W

METAR

SBPJ 251100Z 20004KT 9999 FEW030 26/20 Q1016

Decode

TAF

TAF SBPJ 250400Z 2506/2518 11004KT 9999 FEW025 TN23/2509Z TX33/2517Z BECMG 2511/2513 23007KT SCT035 RMK PEJ

Decode

Destination Runways

ID Width Length Bearing (true) Bearing (mag) Surface Threshold Offset Overrun Length
14 148 ft / 45 m 8,194 ft / 2,497 m 124.06° 145.35° Asphalt 0 ft / 0 m 0 ft / 0 m
32 148 ft / 45 m 8,194 ft / 2,497 m 304.06° 325.35° Asphalt 0 ft / 0 m 0 ft / 0 m

Popular Alternatives